Time;durP1;ratioP1;P1;durP2;ratioP2;P2;SDS_P1;SDS_P2;PMS_P1;PMS_P2;Temp;Humidity;BMP_temperature;BMP_pressure;BME280_temperature;BME280_humidity;BME280_pressure;Samples;Min_cycle;Max_cycle;Signal;HPM_P1;HPM_P2
2022/11/27 00:00:05;;;;;;;;;;;;;;;19.24;48.15;102228.25;5123301;27;19927;-44
2022/11/27 00:02:31;;;;;;;;;;;;;;;19.24;47.99;102233.78;5133175;27;20010;-44
2022/11/27 00:05:03;;;;;;;;;;;;;;;19.25;48.00;102229.09;5116576;27;19939;-44
2022/11/27 00:07:28;;;;;;;;;;;;;;;19.24;48.18;102231.03;5132567;27;19966;-43
2022/11/27 00:09:54;;;;;;;;;;;;;;;19.23;47.83;102228.50;5130687;27;19976;-45
2022/11/27 00:12:19;;;;;;;;;;;;;;;19.25;47.87;102229.09;5121343;27;19924;-43
2022/11/27 00:14:45;;;;;;;;;;;;;;;19.24;48.33;102228.25;5120729;27;19938;-47
2022/11/27 00:17:10;;;;;;;;;;;;;;;19.24;47.81;102219.97;5134187;27;19938;-44
2022/11/27 00:19:36;;;;;;;;;;;;;;;19.22;47.97;102222.16;5126306;27;19951;-44
2022/11/27 00:22:01;;;;;;;;;;;;;;;19.23;48.27;102215.53;5126878;27;20515;-43
2022/11/27 00:24:27;;;;;;;;;;;;;;;19.22;47.79;102213.88;5132326;27;19927;-43
2022/11/27 00:26:53;;;;;;;;;;;;;;;19.23;47.81;102223.81;5134986;27;20630;-43
2022/11/27 00:29:18;;;;;;;;;;;;;;;19.23;48.16;102215.53;5128264;27;20089;-45
2022/11/27 00:31:44;;;;;;;;;;;;;;;19.23;47.83;102218.31;5124355;27;19930;-45
2022/11/27 00:34:10;;;;;;;;;;;;;;;19.23;47.93;102211.94;5128686;27;19923;-45
2022/11/27 00:36:36;;;;;;;;;;;;;;;19.22;47.87;102211.13;5115811;27;19963;-45
2022/11/27 00:39:02;;;;;;;;;;;;;;;19.23;47.91;102209.19;5109961;28;19939;-43
2022/11/27 00:41:28;;;;;;;;;;;;;;;19.23;47.79;102211.94;5126339;27;20015;-43
2022/11/27 00:43:54;;;;;;;;;;;;;;;19.22;48.09;102210.28;5122922;27;19932;-43
2022/11/27 00:46:21;;;;;;;;;;;;;;;19.23;48.07;102210.03;5133715;27;19966;-44
2022/11/27 00:48:53;;;;;;;;;;;;;;;19.22;48.01;102207.53;5113050;27;19938;-45
2022/11/27 00:51:19;;;;;;;;;;;;;;;19.23;47.79;102212.78;5133662;27;19968;-46
2022/11/27 00:53:45;;;;;;;;;;;;;;;19.22;47.96;102205.59;5128894;27;19962;-45
2022/11/27 00:56:13;;;;;;;;;;;;;;;19.22;48.02;102208.34;5129351;27;19924;-44
2022/11/27 00:58:39;;;;;;;;;;;;;;;19.22;47.82;102210.28;5110891;28;20413;-43
2022/11/27 01:01:05;;;;;;;;;;;;;;;19.23;48.06;102200.91;5128389;27;19931;-43
2022/11/27 01:03:31;;;;;;;;;;;;;;;19.22;47.92;102199.22;5112282;28;20383;-43
2022/11/27 01:06:00;;;;;;;;;;;;;;;19.23;47.79;102200.91;5126973;27;19929;-46
2022/11/27 01:08:26;;;;;;;;;;;;;;;19.24;48.09;102197.88;5120219;27;19969;-43
2022/11/27 01:10:53;;;;;;;;;;;;;;;19.23;47.90;102195.38;5139960;27;20544;-43
2022/11/27 01:13:22;;;;;;;;;;;;;;;19.21;47.89;102190.13;5129296;27;19927;-43
2022/11/27 01:15:56;;;;;;;;;;;;;;;19.21;47.76;102186.50;5111096;27;21405;-43
2022/11/27 01:18:22;;;;;;;;;;;;;;;19.22;48.14;102179.91;5114082;28;19930;-43
2022/11/27 01:20:50;;;;;;;;;;;;;;;19.22;48.13;102182.66;5122353;27;19932;-45
2022/11/27 01:23:16;;;;;;;;;;;;;;;19.23;47.78;102185.16;5121756;27;20027;-44
2022/11/27 01:25:42;;;;;;;;;;;;;;;19.23;47.86;102187.94;5139542;27;19977;-43
2022/11/27 01:28:07;;;;;;;;;;;;;;;19.22;48.15;102177.97;5132558;27;19931;-44
2022/11/27 01:30:33;;;;;;;;;;;;;;;19.23;47.96;102181.56;5126726;27;20280;-44
2022/11/27 01:32:58;;;;;;;;;;;;;;;19.22;48.19;102175.22;5121290;27;19932;-44
2022/11/27 01:35:24;;;;;;;;;;;;;;;19.23;47.86;102184.31;5125364;27;19923;-44
2022/11/27 01:37:49;;;;;;;;;;;;;;;19.22;48.16;102179.91;5126891;27;20279;-43
2022/11/27 01:40:15;;;;;;;;;;;;;;;19.22;47.84;102185.44;5122940;27;19923;-43
2022/11/27 01:42:40;;;;;;;;;;;;;;;19.22;47.90;102177.13;5135288;27;19923;-43
2022/11/27 01:45:07;;;;;;;;;;;;;;;19.23;47.79;102173.28;5114795;27;19923;-44
2022/11/27 01:47:35;;;;;;;;;;;;;;;19.22;48.11;102182.66;5121036;27;19923;-44
2022/11/27 01:50:03;;;;;;;;;;;;;;;19.22;47.83;102168.84;5107177;28;19958;-45
2022/11/27 01:52:31;;;;;;;;;;;;;;;19.22;48.11;102172.44;5136199;27;19966;-45
2022/11/27 01:54:57;;;;;;;;;;;;;;;19.21;48.07;102165.25;5112525;27;19962;-44
2022/11/27 01:57:24;;;;;;;;;;;;;;;19.23;48.05;102165.00;5127569;27;19963;-43
2022/11/27 01:59:50;;;;;;;;;;;;;;;19.22;48.03;102160.56;5104085;28;19981;-45
2022/11/27 02:02:15;;;;;;;;;;;;;;;19.22;48.23;102166.09;5117250;27;20367;-45
2022/11/27 02:04:41;;;;;;;;;;;;;;;19.22;47.97;102166.09;5125294;27;19946;-43
2022/11/27 02:07:07;;;;;;;;;;;;;;;19.22;47.83;102166.94;5132857;27;20303;-43
2022/11/27 02:09:33;;;;;;;;;;;;;;;19.23;47.84;102165.00;5133413;27;19930;-44
2022/11/27 02:12:16;;;;;;;;;;;;;;;19.22;48.00;102166.09;5128220;27;19931;-44
2022/11/27 02:14:44;;;;;;;;;;;;;;;19.22;47.79;102166.09;5131917;27;20355;-46
2022/11/27 02:17:13;;;;;;;;;;;;;;;19.21;47.80;102151.44;5105978;28;20406;-43
2022/11/27 02:19:46;;;;;;;;;;;;;;;19.23;47.82;102156.72;5116529;27;20121;-44
2022/11/27 02:22:16;;;;;;;;;;;;;;;19.22;48.00;102147.59;5128625;27;20391;-44
2022/11/27 02:25:01;;;;;;;;;;;;;;;19.22;48.13;102146.75;5121445;27;20014;-47
2022/11/27 02:27:42;;;;;;;;;;;;;;;19.22;47.74;102149.53;5116187;27;20139;-43
2022/11/27 02:30:08;;;;;;;;;;;;;;;19.23;48.00;102153.94;5121910;27;19970;-44
2022/11/27 02:32:37;;;;;;;;;;;;;;;19.22;47.93;102153.13;5130366;27;19923;-43
2022/11/27 02:35:22;;;;;;;;;;;;;;;19.21;48.12;102145.06;5103370;28;20026;-44
2022/11/27 02:37:48;;;;;;;;;;;;;;;19.21;47.76;102134.88;5116627;28;19966;-43
2022/11/27 02:40:30;;;;;;;;;;;;;;;19.22;47.98;102119.97;5127172;27;20014;-44
2022/11/27 02:42:57;;;;;;;;;;;;;;;19.21;48.07;102112.78;5110057;28;19965;-43
2022/11/27 02:45:25;;;;;;;;;;;;;;;19.22;47.83;102097.06;5128093;27;20009;-43
2022/11/27 02:47:51;;;;;;;;;;;;;;;19.21;48.19;102089.84;5107025;28;19963;-46
2022/11/27 02:50:18;;;;;;;;;;;;;;;19.22;48.02;102089.59;5136009;27;19934;-44
2022/11/27 02:52:43;;;;;;;;;;;;;;;19.22;48.01;102095.13;5132065;27;20016;-44
2022/11/27 02:55:10;;;;;;;;;;;;;;;19.23;47.84;102098.72;5110288;28;19923;-44
2022/11/27 02:57:35;;;;;;;;;;;;;;;19.22;47.98;102088.75;5104668;27;19959;-43
2022/11/27 03:00:02;;;;;;;;;;;;;;;19.21;48.24;102093.47;5117617;27;19932;-44
2022/11/27 03:02:29;;;;;;;;;;;;;;;19.21;48.13;102096.22;5130203;27;20009;-45
2022/11/27 03:04:55;;;;;;;;;;;;;;;19.21;47.73;102084.31;5127146;27;20436;-44
2022/11/27 03:07:22;;;;;;;;;;;;;;;19.22;47.81;102083.25;5110671;28;19924;-44
2022/11/27 03:09:48;;;;;;;;;;;;;;;19.22;48.20;102072.19;5122762;27;19923;-46
2022/11/27 03:12:13;;;;;;;;;;;;;;;19.21;47.99;102067.75;5129673;27;20386;-47
2022/11/27 03:14:39;;;;;;;;;;;;;;;19.21;48.00;102067.75;5123985;27;19967;-45
2022/11/27 03:17:25;;;;;;;;;;;;;;;19.22;48.03;102077.72;5119513;27;20018;-45
2022/11/27 03:19:56;;;;;;;;;;;;;;;19.21;47.86;102079.66;5110889;27;19931;-43
2022/11/27 03:22:21;;;;;;;;;;;;;;;19.22;48.15;102080.47;5141435;27;19966;-45
2022/11/27 03:24:48;;;;;;;;;;;;;;;19.21;47.73;102070.50;5104821;28;20291;-44
2022/11/27 03:27:16;;;;;;;;;;;;;;;19.21;47.75;102065.84;5128249;27;19971;-46
2022/11/27 03:29:46;;;;;;;;;;;;;;;19.22;47.94;102069.44;5125836;27;19927;-45
2022/11/27 03:32:12;;;;;;;;;;;;;;;19.21;47.83;102076.03;5123381;27;19962;-44
2022/11/27 03:34:37;;;;;;;;;;;;;;;19.21;48.15;102076.88;5103850;28;19928;-43
2022/11/27 03:37:03;;;;;;;;;;;;;;;19.21;47.73;102065.84;5130839;27;20363;-43
2022/11/27 03:39:29;;;;;;;;;;;;;;;19.20;47.86;102083.47;5103850;28;19931;-43
2022/11/27 03:41:59;;;;;;;;;;;;;;;19.20;47.93;102075.19;5113947;27;19923;-44
2022/11/27 03:44:28;;;;;;;;;;;;;;;19.20;47.88;102077.94;5127221;27;19951;-44
2022/11/27 03:46:58;;;;;;;;;;;;;;;19.22;48.06;102072.19;5127275;27;19984;-43
2022/11/27 03:49:44;;;;;;;;;;;;;;;19.21;48.04;102076.03;5109042;27;19931;-46
2022/11/27 03:52:29;;;;;;;;;;;;;;;19.21;47.82;102065.84;5113809;27;20022;-43
2022/11/27 03:54:58;;;;;;;;;;;;;;;19.21;48.01;102070.50;5107341;28;19935;-44
2022/11/27 03:57:28;;;;;;;;;;;;;;;19.20;47.83;102066.91;5134756;27;19967;-44
2022/11/27 03:59:53;;;;;;;;;;;;;;;19.20;47.85;102050.34;5103888;27;20371;-42
2022/11/27 04:02:26;;;;;;;;;;;;;;;19.21;47.76;102043.75;5130163;27;20362;-44
2022/11/27 04:04:52;;;;;;;;;;;;;;;19.22;48.14;102039.06;5127579;27;19963;-43
2022/11/27 04:07:17;;;;;;;;;;;;;;;19.20;47.83;102033.75;5133703;27;19930;-46
2022/11/27 04:09:43;;;;;;;;;;;;;;;19.20;47.90;102036.53;5128058;27;20295;-47
2022/11/27 04:12:08;;;;;;;;;;;;;;;19.21;47.81;102031.84;5128874;27;19927;-43
2022/11/27 04:14:34;;;;;;;;;;;;;;;19.20;47.71;102031.00;5106656;28;19931;-43
2022/11/27 04:16:59;;;;;;;;;;;;;;;19.21;47.81;102026.31;5128007;27;20312;-43
2022/11/27 04:19:25;;;;;;;;;;;;;;;19.21;47.95;102035.47;5129635;27;19932;-44
2022/11/27 04:21:51;;;;;;;;;;;;;;;19.21;47.88;102029.94;5127497;27;19930;-43
2022/11/27 04:24:16;;;;;;;;;;;;;;;19.20;47.82;102028.25;5131181;27;19968;-44
2022/11/27 04:26:42;;;;;;;;;;;;;;;19.23;47.69;102024.16;5144830;27;19923;-44
2022/11/27 04:29:07;;;;;;;;;;;;;;;19.21;47.95;102023.56;5119952;27;20279;-44
2022/11/27 04:31:33;;;;;;;;;;;;;;;19.21;47.80;102016.13;5130943;27;19992;-44
2022/11/27 04:33:58;;;;;;;;;;;;;;;19.21;48.08;102009.75;5125028;27;19939;-43
2022/11/27 04:36:24;;;;;;;;;;;;;;;19.21;47.99;102001.47;5121422;27;19924;-44
2022/11/27 04:38:50;;;;;;;;;;;;;;;19.20;47.97;102006.16;5129451;27;19931;-43
2022/11/27 04:41:15;;;;;;;;;;;;;;;19.22;47.87;102012.28;5134437;27;19969;-44
2022/11/27 04:43:41;;;;;;;;;;;;;;;19.21;47.79;102012.50;5125349;27;19942;-45
2022/11/27 04:46:06;;;;;;;;;;;;;;;19.21;48.00;102018.88;5119914;27;20367;-43
2022/11/27 04:48:32;;;;;;;;;;;;;;;19.21;48.04;102015.28;5128055;27;20107;-44
2022/11/27 04:50:57;;;;;;;;;;;;;;;19.20;47.85;102003.38;5125188;27;19923;-43
2022/11/27 04:53:23;;;;;;;;;;;;;;;19.20;47.92;102000.63;5127316;27;20333;-44
2022/11/27 04:55:49;;;;;;;;;;;;;;;19.21;47.93;101999.56;5100953;27;19931;-44
2022/11/27 04:58:15;;;;;;;;;;;;;;;19.22;47.81;102005.91;5123500;27;19959;-44
2022/11/27 05:00:40;;;;;;;;;;;;;;;19.21;47.73;102005.09;5127313;27;19924;-45
2022/11/27 05:03:06;;;;;;;;;;;;;;;19.20;47.73;102006.16;5112103;28;19931;-44
2022/11/27 05:05:32;;;;;;;;;;;;;;;19.21;47.76;101998.69;5125614;27;20019;-45
2022/11/27 05:07:57;;;;;;;;;;;;;;;19.20;47.99;101994.28;5126342;27;19932;-46
2022/11/27 05:10:23;;;;;;;;;;;;;;;19.22;47.93;101997.63;5123932;27;19931;-45
2022/11/27 05:12:49;;;;;;;;;;;;;;;19.21;48.12;101998.69;5128941;27;19950;-44
2022/11/27 05:15:15;;;;;;;;;;;;;;;19.20;47.72;101989.59;5105882;28;20083;-44
2022/11/27 05:17:40;;;;;;;;;;;;;;;19.21;47.81;101980.22;5131380;27;20255;-45
2022/11/27 05:20:06;;;;;;;;;;;;;;;19.20;47.93;101981.28;5120340;27;19923;-47
2022/11/27 05:22:32;;;;;;;;;;;;;;;19.19;47.81;101965.81;5133605;27;19924;-43
2022/11/27 05:24:57;;;;;;;;;;;;;;;19.21;47.80;101968.31;5128952;27;20415;-46
2022/11/27 05:27:23;;;;;;;;;;;;;;;19.21;47.86;101968.31;5135516;27;19924;-43
2022/11/27 05:29:48;;;;;;;;;;;;;;;19.20;47.71;101963.91;5136855;27;19979;-43
2022/11/27 05:32:14;;;;;;;;;;;;;;;19.20;47.75;101975.78;5131352;27;20559;-43
2022/11/27 05:34:39;;;;;;;;;;;;;;;19.21;47.95;101971.09;5127665;27;19923;-43
2022/11/27 05:37:05;;;;;;;;;;;;;;;19.19;47.86;101968.59;5127077;27;19931;-43
2022/11/27 05:39:31;;;;;;;;;;;;;;;19.20;47.93;101967.50;5122299;27;19923;-43
2022/11/27 05:41:57;;;;;;;;;;;;;;;19.20;47.81;101964.72;5133479;27;19923;-45
2022/11/27 05:44:22;;;;;;;;;;;;;;;19.19;47.99;101949.25;5126003;27;19930;-44
2022/11/27 05:46:48;;;;;;;;;;;;;;;19.21;47.71;101949.00;5128329;27;20402;-43
2022/11/27 05:49:14;;;;;;;;;;;;;;;19.20;47.73;101939.03;5122902;27;19976;-44
2022/11/27 05:51:39;;;;;;;;;;;;;;;19.20;47.63;101936.28;5134476;27;19928;-44
2022/11/27 05:54:05;;;;;;;;;;;;;;;19.21;47.90;101936.03;5103727;27;20245;-45
2022/11/27 05:56:30;;;;;;;;;;;;;;;19.20;47.83;101939.03;5124064;27;19928;-43
2022/11/27 05:58:56;;;;;;;;;;;;;;;19.20;47.73;101934.34;5129519;27;20318;-45
2022/11/27 06:01:22;;;;;;;;;;;;;;;19.20;47.83;101939.88;5111226;27;19923;-45
2022/11/27 06:03:47;;;;;;;;;;;;;;;19.20;47.85;101926.06;5129261;27;20170;-44
2022/11/27 06:06:14;;;;;;;;;;;;;;;19.20;47.94;101914.19;5133988;27;20278;-44
2022/11/27 06:08:40;;;;;;;;;;;;;;;19.19;47.65;101918.88;5108473;28;20406;-44
2022/11/27 06:11:07;;;;;;;;;;;;;;;19.19;47.91;101924.41;5128808;27;20413;-44
2022/11/27 06:13:33;;;;;;;;;;;;;;;19.20;47.68;101925.25;5127429;27;19975;-45
2022/11/27 06:16:02;;;;;;;;;;;;;;;19.20;47.74;101930.75;5130721;27;19939;-43
2022/11/27 06:18:28;;;;;;;;;;;;;;;19.20;47.94;101926.06;5132071;27;19978;-43
2022/11/27 06:20:53;;;;;;;;;;;;;;;19.19;47.65;101918.88;5127010;27;19930;-43
2022/11/27 06:23:21;;;;;;;;;;;;;;;19.20;47.95;101911.44;5132864;27;19928;-45
2022/11/27 06:25:46;;;;;;;;;;;;;;;19.20;48.08;101905.91;5132295;27;20375;-44
2022/11/27 06:28:12;;;;;;;;;;;;;;;19.19;47.60;101909.75;5115157;28;19923;-45
2022/11/27 06:30:37;;;;;;;;;;;;;;;19.19;47.90;101913.34;5129241;27;19931;-44
2022/11/27 06:33:03;;;;;;;;;;;;;;;19.19;47.94;101910.59;5144470;27;19934;-43
2022/11/27 06:35:28;;;;;;;;;;;;;;;19.19;47.78;101909.75;5132652;27;20866;-45
2022/11/27 06:37:54;;;;;;;;;;;;;;;19.19;48.07;101902.31;5132585;27;19935;-45
2022/11/27 06:40:19;;;;;;;;;;;;;;;19.19;47.70;101902.31;5119277;27;19924;-45
2022/11/27 06:42:45;;;;;;;;;;;;;;;19.19;47.62;101888.50;5132923;27;19923;-45
2022/11/27 06:45:11;;;;;;;;;;;;;;;19.19;47.67;101891.25;5126327;27;19924;-46
2022/11/27 06:47:36;;;;;;;;;;;;;;;19.20;47.90;101883.81;5128979;27;19930;-43
2022/11/27 06:50:02;;;;;;;;;;;;;;;19.19;48.08;101871.09;5123805;27;19932;-44
2022/11/27 06:52:29;;;;;;;;;;;;;;;19.20;47.73;101872.75;5125147;27;19924;-46
2022/11/27 06:54:54;;;;;;;;;;;;;;;19.19;47.65;101858.13;5114983;27;19971;-44
2022/11/27 06:57:20;;;;;;;;;;;;;;;19.19;47.74;101866.41;5131744;27;20344;-44
2022/11/27 06:59:46;;;;;;;;;;;;;;;19.19;47.99;101855.38;5122724;27;19927;-41
2022/11/27 07:02:13;;;;;;;;;;;;;;;19.18;47.77;101856.47;5127362;27;19976;-42
2022/11/27 07:04:38;;;;;;;;;;;;;;;19.19;47.77;101857.28;5121125;27;20353;-46
2022/11/27 07:07:05;;;;;;;;;;;;;;;19.18;47.95;101850.94;5130633;27;19923;-45
2022/11/27 07:09:30;;;;;;;;;;;;;;;19.18;47.71;101845.44;5124902;27;19946;-41
2022/11/27 07:11:56;;;;;;;;;;;;;;;19.19;48.04;101851.78;5134815;27;20015;-44
2022/11/27 07:14:21;;;;;;;;;;;;;;;19.19;47.74;101849.00;5122369;27;19932;-42
2022/11/27 07:16:47;;;;;;;;;;;;;;;19.19;47.97;101837.97;5122361;27;19924;-42
2022/11/27 07:19:13;;;;;;;;;;;;;;;19.18;47.61;101853.72;5127950;27;19931;-42
2022/11/27 07:21:39;;;;;;;;;;;;;;;19.19;47.81;101837.97;5114533;27;20342;-41
2022/11/27 07:24:04;;;;;;;;;;;;;;;19.19;47.76;101852.59;5109489;27;19938;-45
2022/11/27 07:26:30;;;;;;;;;;;;;;;19.18;47.61;101834.38;5126680;27;19967;-41
2022/11/27 07:28:55;;;;;;;;;;;;;;;19.19;47.73;101826.94;5125684;27;19931;-41
2022/11/27 07:31:22;;;;;;;;;;;;;;;19.18;47.89;101814.22;5123188;27;19983;-41
2022/11/27 07:33:47;;;;;;;;;;;;;;;19.18;47.73;101815.03;5109292;27;19963;-45
2022/11/27 07:36:14;;;;;;;;;;;;;;;19.19;47.76;101816.72;5128873;27;19927;-43
2022/11/27 07:38:39;;;;;;;;;;;;;;;19.19;47.71;101826.94;5105063;27;19977;-41
2022/11/27 07:41:05;;;;;;;;;;;;;;;19.19;47.59;101826.94;5104546;27;19934;-44
2022/11/27 07:43:31;;;;;;;;;;;;;;;19.18;47.58;101823.34;5106570;27;19931;-41
2022/11/27 07:45:56;;;;;;;;;;;;;;;19.19;47.93;101829.69;5107981;27;19963;-42
2022/11/27 07:48:22;;;;;;;;;;;;;;;19.18;47.77;101822.50;5120491;27;19924;-42
2022/11/27 07:50:48;;;;;;;;;;;;;;;19.19;47.69;101829.69;5128559;27;19923;-41
2022/11/27 07:53:13;;;;;;;;;;;;;;;19.19;48.02;101824.16;5131348;27;19924;-41
2022/11/27 07:55:39;;;;;;;;;;;;;;;19.17;47.63;101810.63;5129344;27;19928;-40
2022/11/27 07:58:05;;;;;;;;;;;;;;;19.19;47.58;101813.13;5131725;27;19923;-41
2022/11/27 08:00:31;;;;;;;;;;;;;;;19.18;47.81;101798.47;5124436;27;19924;-42
2022/11/27 08:02:57;;;;;;;;;;;;;;;19.18;47.84;101798.47;5110196;28;19931;-41
2022/11/27 08:05:23;;;;;;;;;;;;;;;19.18;47.64;101806.75;5134588;27;20381;-43
2022/11/27 08:07:48;;;;;;;;;;;;;;;19.17;47.96;101802.34;5127406;27;19930;-41
2022/11/27 08:10:14;;;;;;;;;;;;;;;19.18;47.94;101797.66;5115241;27;19924;-42
2022/11/27 08:12:39;;;;;;;;;;;;;;;19.17;48.01;101795.97;5124434;27;19935;-41
2022/11/27 08:15:05;;;;;;;;;;;;;;;19.19;47.85;101804.84;5124343;27;20240;-43
2022/11/27 08:17:31;;;;;;;;;;;;;;;19.18;47.85;101815.03;5129682;27;19938;-43
2022/11/27 08:19:56;;;;;;;;;;;;;;;19.17;47.72;101821.66;5126563;27;19947;-43
2022/11/27 08:22:22;;;;;;;;;;;;;;;19.19;47.95;101815.88;5129428;27;19923;-41
2022/11/27 08:24:47;;;;;;;;;;;;;;;19.18;48.00;101817.81;5121873;27;19984;-41
2022/11/27 08:27:14;;;;;;;;;;;;;;;19.19;47.57;101821.41;5127883;27;20198;-41
2022/11/27 08:29:39;;;;;;;;;;;;;;;19.17;48.05;101832.72;5104548;27;19982;-43
2022/11/27 08:32:05;;;;;;;;;;;;;;;19.17;47.65;101827.19;5130667;27;19976;-42
2022/11/27 08:34:31;;;;;;;;;;;;;;;19.17;47.65;101827.19;5105474;28;20459;-41
2022/11/27 08:36:56;;;;;;;;;;;;;;;19.18;47.61;101819.75;5133248;27;20628;-42
2022/11/27 08:39:22;;;;;;;;;;;;;;;19.19;47.57;101816.72;5125687;27;19924;-42
2022/11/27 08:41:47;;;;;;;;;;;;;;;19.17;47.84;101805.09;5132714;27;19938;-42
2022/11/27 08:44:13;;;;;;;;;;;;;;;19.18;47.51;101800.41;5119446;27;20108;-41
2022/11/27 08:46:38;;;;;;;;;;;;;;;19.17;47.79;101805.09;5125342;27;19934;-43
2022/11/27 08:49:04;;;;;;;;;;;;;;;19.17;47.98;101791.28;5120533;27;20368;-44
2022/11/27 08:51:29;;;;;;;;;;;;;;;19.19;47.75;101797.38;5135007;27;19979;-43
2022/11/27 08:53:55;;;;;;;;;;;;;;;19.18;47.92;101797.66;5120777;27;19931;-41
2022/11/27 08:56:22;;;;;;;;;;;;;;;19.18;47.59;101789.38;5120665;27;20330;-43
2022/11/27 08:58:48;;;;;;;;;;;;;;;19.18;47.62;101783.84;5109809;28;19990;-41
2022/11/27 09:01:14;;;;;;;;;;;;;;;19.18;47.58;101792.13;5110125;27;20388;-41
2022/11/27 09:03:40;;;;;;;;;;;;;;;19.18;47.71;101783.84;5112474;27;19927;-40
2022/11/27 09:06:06;;;;;;;;;;;;;;;19.17;47.69;101777.50;5127966;27;19935;-41
2022/11/27 09:08:32;;;;;;;;;;;;;;;19.18;47.75;101768.09;5126112;27;19962;-43
2022/11/27 09:10:59;;;;;;;;;;;;;;;19.17;47.87;101766.44;5131376;27;20353;-41
2022/11/27 09:13:24;;;;;;;;;;;;;;;19.18;47.63;101775.56;5115833;27;19951;-43
2022/11/27 09:15:50;;;;;;;;;;;;;;;19.17;47.87;101774.72;5130426;27;19984;-43
2022/11/27 09:18:15;;;;;;;;;;;;;;;19.16;47.75;101778.56;5138523;27;19923;-41
2022/11/27 09:20:41;;;;;;;;;;;;;;;19.17;47.68;101766.44;5130789;27;19939;-41
2022/11/27 09:23:06;;;;;;;;;;;;;;;19.18;47.71;101762.59;5127796;27;19924;-42
2022/11/27 09:25:39;;;;;;;;;;;;;;;19.18;47.65;101759.81;5134437;27;20359;-45
2022/11/27 09:28:05;;;;;;;;;;;;;;;19.17;47.70;101765.59;5131655;27;19931;-41
2022/11/27 09:30:30;;;;;;;;;;;;;;;19.17;47.92;101760.94;5136799;27;19927;-41
2022/11/27 09:32:56;;;;;;;;;;;;;;;19.18;47.97;101764.50;5135284;27;19976;-45
2022/11/27 09:35:21;;;;;;;;;;;;;;;19.16;47.71;101762.00;5125217;27;19924;-42
2022/11/27 09:37:47;;;;;;;;;;;;;;;19.16;47.78;101752.88;5128041;27;19924;-43
2022/11/27 09:40:13;;;;;;;;;;;;;;;19.18;47.60;101757.06;5128742;27;20378;-41
2022/11/27 09:42:41;;;;;;;;;;;;;;;19.17;47.65;101760.94;5130199;27;20006;-44
2022/11/27 09:45:09;;;;;;;;;;;;;;;19.17;47.98;101755.41;5124466;27;20352;-41
2022/11/27 09:47:37;;;;;;;;;;;;;;;19.17;47.74;101760.94;5134673;27;19963;-42
2022/11/27 09:50:26;;;;;;;;;;;;;;;19.17;47.91;101751.78;5127930;27;19976;-42
2022/11/27 09:52:54;;;;;;;;;;;;;;;19.16;47.68;101753.72;5115696;27;20403;-43
2022/11/27 09:55:40;;;;;;;;;;;;;;;19.17;47.45;101751.78;5121643;27;19931;-42
2022/11/27 09:58:14;;;;;;;;;;;;;;;19.17;47.55;101749.00;5109340;27;19996;-42
2022/11/27 10:00:41;;;;;;;;;;;;;;;19.18;47.88;101762.59;5140213;27;20393;-41
2022/11/27 10:03:12;;;;;;;;;;;;;;;19.16;47.66;101753.72;5120482;27;20383;-42
2022/11/27 10:05:42;;;;;;;;;;;;;;;19.17;47.57;101749.00;5127435;27;19923;-42
2022/11/27 10:08:19;;;;;;;;;;;;;;;19.17;47.58;101747.13;5135508;27;19968;-43
2022/11/27 10:11:02;;;;;;;;;;;;;;;19.18;47.57;101754.31;5132193;27;20335;-41
2022/11/27 10:13:48;;;;;;;;;;;;;;;19.17;47.69;101754.53;5125591;27;20010;-41
2022/11/27 10:16:18;;;;;;;;;;;;;;;19.17;47.71;101738.84;5110857;27;19974;-42
2022/11/27 10:18:46;;;;;;;;;;;;;;;19.17;47.85;101735.22;5124666;27;19931;-41
2022/11/27 10:21:14;;;;;;;;;;;;;;;19.16;47.54;101734.38;5135349;27;20404;-43
2022/11/27 10:23:57;;;;;;;;;;;;;;;19.18;47.83;101731.38;5109279;27;19924;-43
2022/11/27 10:26:26;;;;;;;;;;;;;;;19.15;47.62;101718.09;5127401;27;20414;-40
2022/11/27 10:29:12;;;;;;;;;;;;;;;19.25;47.56;101709.88;5125777;27;19924;-53
2022/11/27 10:31:39;;;;;;;;;;;;;;;19.24;47.11;101714.59;5109658;27;19958;-52
2022/11/27 10:34:14;;;;;;;;;;;;;;;19.27;46.85;101704.94;5128831;27;19977;-53
2022/11/27 10:36:40;;;;;;;;;;;;;;;19.26;46.89;101698.59;5128580;27;20409;-54
2022/11/27 10:39:10;;;;;;;;;;;;;;;19.30;47.03;101704.44;5127714;27;20026;-52
2022/11/27 10:41:37;;;;;;;;;;;;;;;19.36;46.33;101697.84;5129183;27;19987;-54
2022/11/27 10:44:22;;;;;;;;;;;;;;;19.37;46.64;101685.69;5119065;27;20328;-53
2022/11/27 10:46:48;;;;;;;;;;;;;;;19.37;46.61;101687.63;5125551;27;20359;-53
2022/11/27 10:49:13;;;;;;;;;;;;;;;19.35;46.51;101681.56;5125038;27;19924;-53
2022/11/27 10:51:39;;;;;;;;;;;;;;;19.33;46.50;101669.91;5118509;27;19923;-53
2022/11/27 10:54:04;;;;;;;;;;;;;;;19.33;46.96;101676.28;5119982;27;20326;-53
2022/11/27 10:56:35;;;;;;;;;;;;;;;19.33;46.60;101656.94;5127979;27;19932;-53
2022/11/27 10:59:03;;;;;;;;;;;;;;;19.33;46.47;101634.00;5103056;28;20023;-53
2022/11/27 11:01:39;;;;;;;;;;;;;;;19.32;46.43;101602.81;5111306;27;19965;-53
2022/11/27 11:04:05;;;;;;;;;;;;;;;19.35;46.58;101599.53;5122180;27;20402;-41
2022/11/27 11:06:51;;;;;;;;;;;;;;;19.32;46.96;101589.00;5093635;27;19923;-42
2022/11/27 11:09:33;;;;;;;;;;;;;;;19.30;47.23;101572.69;5107652;27;19923;-41
2022/11/27 11:12:17;;;;;;;;;;;;;;;19.30;47.23;101582.91;5114631;27;20410;-41
2022/11/27 11:14:58;;;;;;;;;;;;;;;19.30;47.31;101569.94;5119881;27;19959;-42
2022/11/27 11:17:33;;;;;;;;;;;;;;;19.29;47.43;101568.25;5106596;27;19982;-41
2022/11/27 11:19:59;;;;;;;;;;;;;;;19.29;47.56;101573.78;5123889;27;20363;-41
2022/11/27 11:22:24;;;;;;;;;;;;;;;19.30;47.73;101569.94;5130711;27;19924;-42
2022/11/27 11:24:50;;;;;;;;;;;;;;;19.32;47.77;101571.59;5130605;27;20362;-42
2022/11/27 11:27:19;;;;;;;;;;;;;;;19.31;47.48;101581.81;5109739;27;19924;-40
2022/11/27 11:29:46;;;;;;;;;;;;;;;19.31;47.69;101573.53;5134342;27;19922;-43
2022/11/27 11:32:19;;;;;;;;;;;;;;;19.33;47.49;101603.63;5110341;27;20137;-43
2022/11/27 11:34:46;;;;;;;;;;;;;;;19.33;47.62;101576.00;5119018;27;20439;-41
2022/11/27 11:37:20;;;;;;;;;;;;;;;19.33;47.30;101576.00;5119975;27;20390;-40
2022/11/27 11:39:47;;;;;;;;;;;;;;;19.34;47.54;101567.44;5110600;28;19955;-40
2022/11/27 11:42:17;;;;;;;;;;;;;;;19.34;47.44;101558.34;5111234;28;19924;-42
2022/11/27 11:44:45;;;;;;;;;;;;;;;19.33;47.52;101543.69;5121702;27;19967;-42
2022/11/27 11:47:18;;;;;;;;;;;;;;;19.34;47.58;101541.75;5102617;27;20076;-42
2022/11/27 11:49:44;;;;;;;;;;;;;;;19.35;47.79;101537.94;5131334;27;20030;-42
2022/11/27 11:52:20;;;;;;;;;;;;;;;19.34;47.56;101530.72;5130181;27;20026;-41
2022/11/27 11:54:50;;;;;;;;;;;;;;;19.34;47.44;101526.03;5115302;27;19963;-40
2022/11/27 12:00:06;;;;;;;;;;;;;;;19.35;47.54;101515.84;5181438;27;19945;-42
2022/11/27 12:02:37;;;;;;;;;;;;;;;19.34;47.54;101522.44;5154955;27;19938;-41
2022/11/27 12:05:13;;;;;;;;;;;;;;;19.34;47.57;101514.97;5133988;27;20337;-40
2022/11/27 12:10:24;;;;;;;;;;;;;;;19.34;47.80;101516.91;5176973;27;20309;-44
2022/11/27 12:12:55;;;;;;;;;;;;;;;19.33;47.55;101505.03;5152895;27;19966;-42
2022/11/27 12:15:40;;;;;;;;;;;;;;;19.34;47.40;101519.66;5173025;27;19955;-41
2022/11/27 12:18:08;;;;;;;;;;;;;;;19.33;47.40;101507.78;5155538;27;20104;-40
2022/11/27 12:20:40;;;;;;;;;;;;;;;19.33;47.47;101505.03;5149294;27;20395;-41
2022/11/27 12:23:11;;;;;;;;;;;;;;;19.34;47.50;101508.63;5173297;27;19950;-42
2022/11/27 12:25:39;;;;;;;;;;;;;;;19.34;47.52;101497.56;5173339;27;19969;-42
2022/11/27 12:28:11;;;;;;;;;;;;;;;19.34;47.52;101490.13;5170082;27;19977;-41
2022/11/27 12:30:40;;;;;;;;;;;;;;;19.34;47.83;101478.25;5174230;27;19927;-42
2022/11/27 12:33:26;;;;;;;;;;;;;;;19.34;47.73;101487.34;5175865;27;20018;-40
2022/11/27 12:36:12;;;;;;;;;;;;;;;19.33;47.56;101479.34;5161860;27;19927;-41
2022/11/27 12:38:48;;;;;;;;;;;;;;;19.33;47.81;101480.19;5156553;27;19923;-41
2022/11/27 12:41:19;;;;;;;;;;;;;;;19.34;47.71;101475.47;5171882;27;19999;-43
2022/11/27 12:43:45;;;;;;;;;;;;;;;19.35;47.71;101479.94;5174825;27;19949;-41